Time;durP1;ratioP1;P1;durP2;ratioP2;P2;SDS_P1;SDS_P2;PMS_P1;PMS_P2;Temp;Humidity;BMP_temperature;BMP_pressure;BME280_temperature;BME280_humidity;BME280_pressure;Samples;Min_cycle;Max_cycle;Signal;HPM_P1;HPM_P2
2024/03/31 00:00:09;;;;;;;59.35;15.10;;;11.30;94.30;;;;;;5037324;28;20023;-59
2024/03/31 00:02:36;;;;;;;64.15;14.98;;;11.30;94.40;;;;;;5039520;28;20021;-59
2024/03/31 00:05:01;;;;;;;63.35;16.77;;;11.30;94.40;;;;;;5039479;28;20585;-59
2024/03/31 00:07:26;;;;;;;60.13;14.25;;;11.30;94.30;;;;;;5039544;28;20067;-59
2024/03/31 00:09:52;;;;;;;70.05;16.25;;;11.20;94.30;;;;;;5039036;28;20124;-59
2024/03/31 00:12:18;;;;;;;64.43;15.82;;;11.20;94.50;;;;;;5039224;28;20433;-59
2024/03/31 00:14:44;;;;;;;70.75;16.73;;;11.20;94.80;;;;;;5036885;28;20025;-60
2024/03/31 00:17:10;;;;;;;64.72;15.52;;;11.20;94.00;;;;;;5035180;28;20065;-59
2024/03/31 00:19:35;;;;;;;58.05;15.05;;;11.20;93.90;;;;;;5039263;28;20041;-59
2024/03/31 00:22:01;;;;;;;69.47;14.10;;;11.20;94.20;;;;;;5035099;28;20111;-59
2024/03/31 00:24:27;;;;;;;62.80;14.20;;;11.20;94.00;;;;;;5039225;28;20032;-59
2024/03/31 00:26:53;;;;;;;64.75;14.18;;;11.20;93.50;;;;;;5039538;28;20374;-60
2024/03/31 00:29:18;;;;;;;44.88;12.38;;;11.30;93.70;;;;;;5039121;28;20308;-59
2024/03/31 00:31:44;;;;;;;63.50;12.35;;;11.30;93.60;;;;;;5041032;28;20530;-59
2024/03/31 00:34:10;;;;;;;59.95;14.00;;;11.40;92.80;;;;;;5038970;28;20033;-59
2024/03/31 00:36:35;;;;;;;54.80;11.77;;;11.40;92.70;;;;;;5039274;28;20024;-59
2024/03/31 00:39:01;;;;;;;47.78;11.23;;;11.40;93.00;;;;;;5031458;28;20034;-59
2024/03/31 00:41:26;;;;;;;65.50;12.27;;;11.30;92.60;;;;;;5034263;28;20028;-59
2024/03/31 00:43:52;;;;;;;67.70;12.40;;;11.30;92.50;;;;;;5031340;28;20025;-58
2024/03/31 00:46:17;;;;;;;41.90;11.15;;;11.40;92.80;;;;;;5036754;28;20242;-59
2024/03/31 00:48:43;;;;;;;51.60;11.88;;;11.30;92.90;;;;;;5035339;28;20401;-59
2024/03/31 00:51:08;;;;;;;50.50;12.07;;;11.30;93.20;;;;;;5038794;28;20108;-59
2024/03/31 00:53:34;;;;;;;58.53;12.15;;;11.20;93.20;;;;;;5043221;28;20388;-59
2024/03/31 00:55:59;;;;;;;55.28;13.40;;;11.30;93.60;;;;;;5038999;28;20044;-59
2024/03/31 00:58:25;;;;;;;47.78;10.85;;;11.20;93.20;;;;;;5038582;28;20029;-59
2024/03/31 01:00:50;;;;;;;52.38;11.25;;;11.20;93.60;;;;;;5044854;28;20029;-60
2024/03/31 01:03:26;;;;;;;47.95;11.75;;;11.20;93.70;;;;;;5038585;28;20054;-59
2024/03/31 01:05:52;;;;;;;;;;;11.20;93.80;;;;;;5035688;28;20112;-58
2024/03/31 01:08:17;;;;;;;55.38;9.57;;;11.20;95.10;;;;;;5040825;28;20031;-59
2024/03/31 01:10:43;;;;;;;54.35;11.80;;;11.20;94.60;;;;;;5042198;28;20033;-59
2024/03/31 01:13:09;;;;;;;41.00;9.93;;;11.10;94.40;;;;;;5042545;28;20370;-60
2024/03/31 01:15:35;;;;;;;63.33;11.75;;;11.10;94.30;;;;;;5036915;28;20077;-59
2024/03/31 01:18:01;;;;;;;58.85;11.85;;;11.10;93.90;;;;;;5040324;28;20293;-59
2024/03/31 01:20:27;;;;;;;38.47;9.80;;;11.10;94.00;;;;;;5049601;28;20160;-59
2024/03/31 01:22:53;;;;;;;63.63;12.07;;;11.10;94.30;;;;;;5042499;28;20116;-59
2024/03/31 01:25:18;;;;;;;56.60;13.15;;;11.20;93.60;;;;;;5044187;28;20013;-59
2024/03/31 01:27:44;;;;;;;77.88;15.55;;;11.30;92.80;;;;;;5038201;28;20033;-59
2024/03/31 01:30:09;;;;;;;75.60;17.55;;;11.40;92.00;;;;;;5040871;28;20549;-59
2024/03/31 01:32:35;;;;;;;77.28;15.77;;;11.60;91.40;;;;;;5041564;28;20048;-59
2024/03/31 01:35:00;;;;;;;69.50;13.65;;;11.70;90.60;;;;;;5033856;28;20393;-59
2024/03/31 01:37:26;;;;;;;77.35;13.48;;;11.80;90.10;;;;;;5039814;28;20033;-59
2024/03/31 01:39:52;;;;;;;56.13;13.40;;;11.80;89.60;;;;;;5034034;28;20164;-59
2024/03/31 01:42:18;;;;;;;61.03;13.68;;;11.80;89.10;;;;;;5042020;28;20507;-59
2024/03/31 01:44:44;;;;;;;68.45;13.70;;;11.90;88.80;;;;;;5041951;28;20032;-59
2024/03/31 01:47:09;;;;;;;58.88;13.65;;;11.80;88.90;;;;;;5041935;28;20025;-59
2024/03/31 01:49:35;;;;;;;51.10;11.68;;;11.70;88.80;;;;;;5041892;28;20401;-59
2024/03/31 01:52:00;;;;;;;49.75;11.70;;;11.80;88.30;;;;;;5043800;28;20037;-59
2024/03/31 01:54:25;;;;;;;57.17;11.65;;;11.80;88.40;;;;;;5041859;28;20033;-59
2024/03/31 01:56:51;;;;;;;62.17;12.00;;;11.70;89.10;;;;;;5041983;28;20958;-59
2024/03/31 01:59:16;;;;;;;59.13;11.70;;;11.70;90.10;;;;;;5041604;28;20025;-70
2024/03/31 02:01:42;;;;;;;50.83;10.98;;;11.60;90.10;;;;;;5036457;28;20061;-60
2024/03/31 02:04:07;;;;;;;49.17;11.05;;;11.50;90.00;;;;;;5038138;28;20386;-60
2024/03/31 02:06:33;;;;;;;39.95;10.80;;;11.50;90.20;;;;;;5037549;28;20108;-59
2024/03/31 02:08:58;;;;;;;48.22;10.20;;;11.50;90.40;;;;;;5039267;28;20040;-60
2024/03/31 02:11:23;;;;;;;57.42;12.32;;;11.30;90.70;;;;;;5037233;28;20023;-60
2024/03/31 02:13:49;;;;;;;51.58;11.20;;;11.30;90.90;;;;;;5036827;28;20044;-60
2024/03/31 02:16:19;;;;;;;52.45;11.15;;;11.30;91.20;;;;;;5033000;28;20029;-60
2024/03/31 02:18:44;;;;;;;50.50;12.02;;;11.20;91.40;;;;;;5035963;28;20043;-59
2024/03/31 02:21:10;;;;;;;42.20;10.40;;;11.20;91.70;;;;;;5056589;28;20504;-59
2024/03/31 02:23:35;;;;;;;50.75;11.70;;;11.10;91.70;;;;;;5043059;28;20029;-60
2024/03/31 02:26:01;;;;;;;54.25;11.60;;;11.00;92.00;;;;;;5041090;28;20035;-60
2024/03/31 02:28:26;;;;;;;45.80;11.32;;;11.00;92.20;;;;;;5041217;28;20474;-60
2024/03/31 02:30:52;;;;;;;50.35;12.50;;;10.90;92.30;;;;;;5041066;28;20408;-59
2024/03/31 02:33:18;;;;;;;53.45;12.05;;;10.90;92.60;;;;;;5041080;28;20021;-60
2024/03/31 02:35:43;;;;;;;47.13;10.43;;;10.80;92.80;;;;;;5041335;28;20025;-60
2024/03/31 02:38:09;;;;;;;47.47;10.48;;;10.80;93.20;;;;;;5041082;28;20070;-59
2024/03/31 02:40:35;;;;;;;35.80;9.57;;;10.80;93.10;;;;;;5039562;28;20044;-60
2024/03/31 02:43:00;;;;;;;49.85;10.90;;;10.70;93.30;;;;;;5039611;28;20083;-60
2024/03/31 02:45:26;;;;;;;63.30;11.23;;;10.70;93.60;;;;;;5041178;28;20048;-60
2024/03/31 02:47:52;;;;;;;56.17;16.77;;;10.70;93.80;;;;;;5041011;28;20421;-60
2024/03/31 02:50:17;;;;;;;63.15;16.23;;;10.60;93.90;;;;;;5040955;28;20025;-60
2024/03/31 02:52:43;;;;;;;48.15;11.93;;;10.60;94.10;;;;;;5041014;28;20075;-59
2024/03/31 02:55:08;;;;;;;53.50;13.05;;;10.50;93.90;;;;;;5042693;28;20021;-59
2024/03/31 02:57:34;;;;;;;57.75;14.98;;;10.60;93.60;;;;;;5040732;28;20031;-60
2024/03/31 02:59:59;;;;;;;64.10;12.07;;;10.70;93.30;;;;;;5039034;28;20082;-59
2024/03/31 03:02:24;;;;;;;50.83;12.73;;;10.70;93.10;;;;;;5040522;28;20035;-60
2024/03/31 03:04:50;;;;;;;65.28;13.93;;;10.80;92.60;;;;;;5040676;28;20040;-60
2024/03/31 03:07:15;;;;;;;75.88;16.58;;;10.90;92.00;;;;;;5040424;28;20039;-59
2024/03/31 03:09:43;;;;;;;58.25;12.70;;;10.90;91.60;;;;;;5042442;28;20047;-60
2024/03/31 03:12:08;;;;;;;60.10;12.05;;;11.00;91.40;;;;;;5037938;28;20389;-60
2024/03/31 03:14:34;;;;;;;56.45;11.68;;;11.00;91.20;;;;;;5038920;28;20017;-59
2024/03/31 03:16:59;;;;;;;42.63;11.23;;;11.00;91.30;;;;;;5040416;28;20032;-59
2024/03/31 03:19:25;;;;;;;38.70;10.77;;;10.90;91.50;;;;;;5040016;28;20036;-60
2024/03/31 03:21:51;;;;;;;52.88;10.60;;;10.80;91.80;;;;;;5040292;28;20424;-60
2024/03/31 03:24:17;;;;;;;45.40;9.90;;;10.70;92.20;;;;;;5041522;28;20362;-60
2024/03/31 03:26:45;;;;;;;42.17;10.07;;;10.70;92.50;;;;;;5038269;28;20086;-60
2024/03/31 03:29:11;;;;;;;49.78;11.55;;;10.60;92.60;;;;;;5040037;28;20037;-60
2024/03/31 03:31:36;;;;;;;37.60;9.32;;;10.50;92.80;;;;;;5040272;28;20553;-60
2024/03/31 03:34:02;;;;;;;41.83;8.77;;;10.50;93.40;;;;;;5040070;28;20032;-59
2024/03/31 03:36:27;;;;;;;43.13;11.38;;;10.40;93.50;;;;;;5040182;28;20033;-59
2024/03/31 03:38:53;;;;;;;45.80;10.23;;;10.40;93.70;;;;;;5034280;28;20417;-59
2024/03/31 03:41:18;;;;;;;34.65;9.13;;;10.30;93.90;;;;;;5041818;28;20025;-60
2024/03/31 03:43:43;;;;;;;59.45;11.82;;;10.30;94.10;;;;;;5039908;28;20321;-60
2024/03/31 03:46:09;;;;;;;55.67;11.73;;;10.20;94.10;;;;;;5035679;28;20370;-60
2024/03/31 03:48:35;;;;;;;44.88;11.38;;;10.20;94.10;;;;;;5031631;28;20401;-59
2024/03/31 03:51:02;;;;;;;50.97;10.85;;;10.20;94.10;;;;;;5039497;28;20526;-60
2024/03/31 03:53:28;;;;;;;61.83;10.75;;;10.20;94.70;;;;;;5035794;28;20025;-59
2024/03/31 03:55:54;;;;;;;59.30;10.93;;;10.10;94.60;;;;;;5035809;28;20021;-60
2024/03/31 03:58:19;;;;;;;43.55;10.57;;;10.10;94.70;;;;;;5038399;28;20029;-60
2024/03/31 04:00:45;;;;;;;38.17;9.48;;;10.00;95.00;;;;;;5034772;28;20029;-60
2024/03/31 04:03:10;;;;;;;43.33;10.55;;;10.00;95.10;;;;;;5031194;28;20031;-59
2024/03/31 04:05:36;;;;;;;52.58;12.65;;;9.90;95.10;;;;;;5038124;28;20109;-60
2024/03/31 04:08:01;;;;;;;53.10;11.70;;;9.90;95.20;;;;;;5032586;28;20033;-59
2024/03/31 04:10:27;;;;;;;49.78;12.13;;;9.90;95.90;;;;;;5031174;28;20041;-60
2024/03/31 04:12:53;;;;;;;43.42;10.65;;;9.80;96.10;;;;;;5052583;28;20033;-60
2024/03/31 04:15:19;;;;;;;45.30;11.55;;;9.80;96.30;;;;;;5035277;28;20078;-60
2024/03/31 04:17:44;;;;;;;39.97;10.25;;;9.70;96.50;;;;;;5031309;28;20434;-59
2024/03/31 04:20:10;;;;;;;47.05;10.90;;;9.70;96.60;;;;;;5039165;28;20496;-60
2024/03/31 04:22:35;;;;;;;53.28;11.05;;;9.70;96.90;;;;;;5035223;28;20035;-60
2024/03/31 04:25:01;;;;;;;42.22;11.65;;;9.60;96.80;;;;;;5033645;28;20438;-60
2024/03/31 04:27:27;;;;;;;70.20;11.90;;;9.60;97.00;;;;;;5031730;28;20112;-60
2024/03/31 04:29:52;;;;;;;46.25;11.30;;;9.60;97.10;;;;;;5035811;28;20369;-60
2024/03/31 04:32:18;;;;;;;71.80;11.57;;;9.60;97.60;;;;;;5037723;28;20029;-60
2024/03/31 04:34:43;;;;;;;48.38;12.02;;;9.50;97.70;;;;;;5038306;28;20044;-60
2024/03/31 04:37:09;;;;;;;52.92;11.65;;;9.50;97.70;;;;;;5038538;28;20396;-59
2024/03/31 04:39:35;;;;;;;53.17;10.70;;;9.50;98.10;;;;;;5033155;28;20033;-61
2024/03/31 04:42:00;;;;;;;36.08;9.30;;;9.40;98.00;;;;;;5046349;28;20029;-60
2024/03/31 04:44:26;;;;;;;40.92;10.60;;;9.40;98.60;;;;;;5033610;28;20443;-60
2024/03/31 04:46:51;;;;;;;46.05;10.40;;;9.40;98.80;;;;;;5039481;28;20028;-61
2024/03/31 04:49:17;;;;;;;34.33;9.18;;;9.30;98.90;;;;;;5037628;28;20096;-60
2024/03/31 04:51:43;;;;;;;43.72;10.77;;;9.30;99.90;;;;;;5034493;28;20159;-60
2024/03/31 04:54:09;;;;;;;51.38;11.43;;;9.30;99.90;;;;;;5033214;28;20100;-60
2024/03/31 04:56:34;;;;;;;34.55;9.77;;;9.30;99.60;;;;;;5036264;28;20034;-61
2024/03/31 04:59:00;;;;;;;46.70;10.20;;;9.30;99.90;;;;;;5033962;28;20090;-60
2024/03/31 05:01:25;;;;;;;49.33;11.07;;;9.30;99.90;;;;;;5034972;28;20112;-60
2024/03/31 05:03:50;;;;;;;43.50;10.90;;;9.30;99.90;;;;;;5034153;28;20029;-60
2024/03/31 05:06:16;;;;;;;41.38;11.05;;;9.30;99.90;;;;;;5032427;28;20036;-60
2024/03/31 05:08:42;;;;;;;54.50;13.52;;;9.30;99.90;;;;;;5031236;28;20162;-60
2024/03/31 05:11:07;;;;;;;45.85;11.48;;;9.30;99.80;;;;;;5036770;28;20032;-60
2024/03/31 05:13:32;;;;;;;42.78;10.27;;;9.30;99.90;;;;;;5039194;28;20041;-59
2024/03/31 05:15:59;;;;;;;41.72;10.38;;;9.30;99.90;;;;;;5030939;28;20080;-60
2024/03/31 05:18:25;;;;;;;50.72;11.65;;;9.30;99.90;;;;;;5033789;28;20645;-60
2024/03/31 05:20:59;;;;;;;51.83;10.73;;;9.30;99.90;;;;;;5036427;28;20056;-59
2024/03/31 05:23:25;;;;;;;37.20;10.23;;;9.30;99.90;;;;;;5034721;28;20025;-60
2024/03/31 05:25:51;;;;;;;37.22;9.50;;;9.30;99.90;;;;;;5038663;28;20031;-60
2024/03/31 05:28:20;;;;;;;46.25;9.90;;;9.30;99.90;;;;;;5036578;28;20031;-60
2024/03/31 05:30:47;;;;;;;41.90;9.50;;;9.40;99.90;;;;;;5037237;28;20432;-61
2024/03/31 05:33:13;;;;;;;44.17;11.30;;;9.50;99.90;;;;;;5035508;28;20029;-60
2024/03/31 05:35:42;;;;;;;36.45;8.88;;;9.50;99.90;;;;;;5040767;28;20056;-61
2024/03/31 05:38:09;;;;;;;35.65;10.80;;;9.60;99.90;;;;;;5038488;28;20033;-60
2024/03/31 05:40:38;;;;;;;42.83;10.30;;;9.70;99.90;;;;;;5036831;28;20590;-58
2024/03/31 05:43:05;;;;;;;43.00;10.88;;;9.80;99.90;;;;;;5042308;28;20029;-58
2024/03/31 05:45:30;;;;;;;42.55;10.40;;;9.90;99.90;;;;;;5038315;28;20033;-59
2024/03/31 05:47:56;;;;;;;50.85;13.18;;;10.00;99.90;;;;;;5041431;28;20098;-59
2024/03/31 05:50:23;;;;;;;35.42;11.32;;;10.10;99.90;;;;;;5054334;28;20029;-59
2024/03/31 05:52:48;;;;;;;44.10;10.73;;;10.20;99.90;;;;;;5038302;28;20064;-58
2024/03/31 05:55:14;;;;;;;54.25;12.45;;;10.30;99.90;;;;;;5044256;28;20057;-59
2024/03/31 05:57:39;;;;;;;48.05;11.25;;;10.40;99.90;;;;;;5042189;28;20029;-59
2024/03/31 06:00:05;;;;;;;43.83;11.55;;;10.50;99.90;;;;;;5040793;28;20037;-58
2024/03/31 06:02:31;;;;;;;43.83;10.10;;;10.50;99.90;;;;;;5038207;28;20385;-59
2024/03/31 06:04:58;;;;;;;36.85;11.05;;;10.70;99.80;;;;;;5034034;28;20045;-58
2024/03/31 06:07:24;;;;;;;41.97;12.35;;;10.70;99.50;;;;;;5041737;28;20052;-58
2024/03/31 06:09:50;;;;;;;46.75;11.32;;;10.80;99.10;;;;;;5039876;28;20054;-59
2024/03/31 06:12:15;;;;;;;37.33;11.65;;;10.90;99.00;;;;;;5053175;28;20090;-59
2024/03/31 06:14:41;;;;;;;40.30;12.88;;;10.90;98.90;;;;;;5041798;28;20036;-59
2024/03/31 06:17:06;;;;;;;58.63;14.40;;;11.00;99.10;;;;;;5039828;28;20067;-59
2024/03/31 06:19:32;;;;;;;55.78;13.93;;;11.10;98.90;;;;;;5035821;28;20695;-59
2024/03/31 06:21:57;;;;;;;41.97;13.05;;;11.20;98.60;;;;;;5041834;28;20033;-60
2024/03/31 06:24:23;;;;;;;39.80;11.18;;;11.30;98.40;;;;;;5039167;28;20074;-59
2024/03/31 06:26:48;;;;;;;39.33;12.93;;;11.40;98.10;;;;;;5034637;28;20040;-59
2024/03/31 06:29:14;;;;;;;59.28;13.00;;;11.50;97.90;;;;;;5036313;28;20029;-59
2024/03/31 06:31:39;;;;;;;43.40;12.40;;;11.50;98.00;;;;;;5037453;28;20037;-59
2024/03/31 06:34:05;;;;;;;39.28;12.20;;;11.60;98.00;;;;;;5040229;28;20094;-58
2024/03/31 06:36:30;;;;;;;42.17;12.88;;;11.70;97.90;;;;;;5038599;28;20098;-58
2024/03/31 06:38:56;;;;;;;44.42;13.48;;;11.80;97.60;;;;;;5037856;28;20052;-60
2024/03/31 06:41:23;;;;;;;43.20;12.55;;;11.90;97.30;;;;;;5034643;28;20037;-59
2024/03/31 06:43:49;;;;;;;54.00;12.40;;;12.10;97.00;;;;;;5040010;28;20481;-59
2024/03/31 06:46:14;;;;;;;44.90;12.82;;;12.20;96.50;;;;;;5041071;28;20218;-59
2024/03/31 06:48:40;;;;;;;51.60;13.18;;;12.30;96.10;;;;;;5036913;28;20033;-58
2024/03/31 06:51:05;;;;;;;51.10;13.55;;;12.50;95.70;;;;;;5036562;28;20033;-58
2024/03/31 06:53:31;;;;;;;42.80;13.48;;;12.60;94.90;;;;;;5039507;28;20452;-59
2024/03/31 06:55:56;;;;;;;41.25;12.82;;;12.60;94.20;;;;;;5041293;28;20040;-59
2024/03/31 06:58:22;;;;;;;48.17;12.65;;;12.80;93.80;;;;;;5056000;28;20052;-59
2024/03/31 07:00:47;;;;;;;53.58;13.27;;;12.80;93.30;;;;;;5041112;28;20037;-58
2024/03/31 07:03:13;;;;;;;55.20;13.10;;;13.00;92.90;;;;;;5032055;28;20025;-58
2024/03/31 07:05:38;;;;;;;40.90;11.85;;;13.10;92.30;;;;;;5040948;28;20070;-59
2024/03/31 07:08:04;;;;;;;46.53;14.40;;;13.30;91.80;;;;;;5042437;28;20370;-59
2024/03/31 07:10:29;;;;;;;54.85;15.20;;;13.40;91.50;;;;;;5036475;28;20045;-60
2024/03/31 07:12:55;;;;;;;65.22;16.98;;;13.50;90.60;;;;;;5036630;28;20074;-60
2024/03/31 07:15:20;;;;;;;48.08;14.07;;;13.60;90.10;;;;;;5036231;28;20025;-60
2024/03/31 07:17:47;;;;;;;47.50;13.27;;;13.70;88.30;;;;;;5036255;28;20037;-60
2024/03/31 07:20:13;;;;;;;49.95;14.52;;;13.80;88.10;;;;;;5037985;28;20017;-60
2024/03/31 07:22:39;;;;;;;55.28;14.30;;;13.90;88.10;;;;;;5038315;28;20096;-59
2024/03/31 07:25:05;;;;;;;52.38;14.93;;;13.90;86.50;;;;;;5042297;28;20613;-59
2024/03/31 07:27:30;;;;;;;41.33;12.75;;;13.90;85.30;;;;;;5040497;28;20017;-61
2024/03/31 07:29:56;;;;;;;44.38;12.57;;;14.00;85.70;;;;;;5036276;28;20037;-60
2024/03/31 07:32:21;;;;;;;44.42;12.35;;;14.00;84.90;;;;;;5035004;28;20481;-59
2024/03/31 07:34:47;;;;;;;39.20;13.15;;;14.10;84.40;;;;;;5036161;28;20013;-59
2024/03/31 07:37:12;;;;;;;55.85;14.25;;;14.20;83.30;;;;;;5034112;28;20051;-59
2024/03/31 07:39:38;;;;;;;48.88;13.07;;;14.30;83.40;;;;;;5035585;28;20112;-60
2024/03/31 07:42:04;;;;;;;55.00;13.93;;;14.40;83.10;;;;;;5035524;28;20025;-60
2024/03/31 07:44:29;;;;;;;51.00;12.13;;;14.40;82.70;;;;;;5039118;28;20025;-60
2024/03/31 07:46:55;;;;;;;54.17;13.07;;;14.60;82.10;;;;;;5035853;28;20483;-60
2024/03/31 07:49:20;;;;;;;49.88;13.20;;;14.60;80.40;;;;;;5034628;28;20037;-59
2024/03/31 07:51:46;;;;;;;52.60;12.70;;;14.70;80.60;;;;;;5033104;28;20061;-60
2024/03/31 07:54:11;;;;;;;42.97;11.95;;;14.70;80.40;;;;;;5040670;28;20104;-59
2024/03/31 07:56:37;;;;;;;46.35;12.20;;;14.80;80.00;;;;;;5040486;28;20779;-60
2024/03/31 07:59:02;;;;;;;55.53;14.25;;;14.90;79.90;;;;;;5035485;28;20017;-59
2024/03/31 08:01:28;;;;;;;40.70;12.15;;;15.00;79.20;;;;;;5040028;28;20100;-60
2024/03/31 08:03:53;;;;;;;41.00;12.30;;;15.20;78.00;;;;;;5039864;28;20025;-59
2024/03/31 08:06:19;;;;;;;40.75;12.88;;;15.50;77.40;;;;;;5039497;28;20100;-67
2024/03/31 08:08:45;;;;;;;40.35;12.75;;;15.90;77.10;;;;;;5039122;28;20037;-67
2024/03/31 08:11:10;;;;;;;55.58;15.23;;;16.20;76.20;;;;;;5035232;28;20606;-66
2024/03/31 08:13:35;;;;;;;50.10;13.82;;;16.40;74.90;;;;;;5033677;28;20050;-66
2024/03/31 08:16:01;;;;;;;65.45;17.45;;;16.50;74.50;;;;;;5027248;28;20543;-66
2024/03/31 08:18:27;;;;;;;58.42;14.80;;;16.50;72.30;;;;;;5035613;28;20029;-64
2024/03/31 08:20:52;;;;;;;58.35;14.43;;;16.50;71.80;;;;;;5035606;28;20021;-62
2024/03/31 08:23:18;;;;;;;64.00;15.07;;;16.40;72.10;;;;;;5036544;28;20028;-64
2024/03/31 08:25:50;;;;;;;66.63;15.02;;;16.40;71.30;;;;;;5032243;28;20033;-64
2024/03/31 08:28:16;;;;;;;62.53;14.85;;;16.40;71.10;;;;;;5030928;28;20032;-64
2024/03/31 08:30:41;;;;;;;61.67;15.65;;;16.50;70.00;;;;;;5033583;28;20470;-65
2024/03/31 08:33:07;;;;;;;54.17;15.68;;;16.70;70.10;;;;;;5034337;28;20063;-65
2024/03/31 08:35:32;;;;;;;46.63;14.55;;;16.90;69.20;;;;;;5030766;28;20036;-65
2024/03/31 08:37:58;;;;;;;52.40;14.32;;;17.10;68.60;;;;;;5031818;28;20103;-64
2024/03/31 08:40:30;;;;;;;44.30;12.80;;;17.60;68.20;;;;;;5024902;28;20493;-65
2024/03/31 08:43:05;;;;;;;54.08;15.93;;;18.00;67.40;;;;;;5032887;28;20041;-65
2024/03/31 08:45:31;;;;;;;59.65;14.68;;;18.50;66.30;;;;;;5029952;28;20052;-67
2024/03/31 08:47:59;;;;;;;46.03;13.15;;;18.90;65.20;;;;;;5035813;28;20116;-66
2024/03/31 08:50:25;;;;;;;43.63;12.05;;;19.60;64.50;;;;;;5028687;28;20263;-66
2024/03/31 08:52:54;;;;;;;57.03;16.10;;;20.20;64.60;;;;;;5033971;28;20490;-66
2024/03/31 08:55:19;;;;;;;55.92;14.65;;;20.70;60.90;;;;;;5029100;28;20030;-66
2024/03/31 08:57:46;;;;;;;61.65;14.68;;;21.00;59.10;;;;;;5026464;28;20100;-66
2024/03/31 09:00:12;;;;;;;53.10;15.63;;;21.40;58.40;;;;;;5034365;28;20071;-66
2024/03/31 09:02:38;;;;;;;60.42;15.65;;;21.70;56.80;;;;;;5037013;28;20497;-66
2024/03/31 09:05:04;;;;;;;52.40;14.23;;;21.70;56.10;;;;;;5036254;28;20099;-66
2024/03/31 09:07:32;;;;;;;59.80;15.05;;;21.80;54.40;;;;;;5034139;28;20427;-66
2024/03/31 09:09:58;;;;;;;63.83;16.05;;;21.80;53.80;;;;;;5037856;28;20044;-64
2024/03/31 09:12:24;;;;;;;54.75;15.07;;;21.60;49.80;;;;;;5041413;28;20025;-66
2024/03/31 09:14:49;;;;;;;58.38;16.40;;;21.60;50.20;;;;;;5040584;28;20039;-66
2024/03/31 09:17:15;;;;;;;43.17;14.57;;;21.50;49.20;;;;;;5039652;28;20025;-66
2024/03/31 09:19:40;;;;;;;70.10;17.98;;;21.80;49.80;;;;;;5032106;28;20017;-66
2024/03/31 09:22:06;;;;;;;62.67;16.05;;;21.60;44.20;;;;;;5038334;28;20036;-66
2024/03/31 09:24:32;;;;;;;51.40;14.52;;;21.50;46.70;;;;;;5041367;28;20037;-66
2024/03/31 09:26:58;;;;;;;47.72;13.65;;;21.60;46.20;;;;;;5037724;28;20033;-64
2024/03/31 09:29:25;;;;;;;44.42;13.55;;;22.20;46.20;;;;;;5036457;28;20115;-66
2024/03/31 09:31:52;;;;;;;45.22;15.45;;;22.60;45.90;;;;;;5039965;28;20036;-66
2024/03/31 09:34:17;;;;;;;75.63;18.20;;;23.00;45.50;;;;;;5039330;28;20081;-66
2024/03/31 09:36:44;;;;;;;70.70;17.98;;;23.00;41.10;;;;;;5034931;28;20181;-66
2024/03/31 09:39:10;;;;;;;57.22;16.40;;;22.10;38.10;;;;;;5032585;28;20021;-66
2024/03/31 09:41:37;;;;;;;62.58;16.55;;;21.50;40.00;;;;;;5049794;28;20021;-66
2024/03/31 09:44:03;;;;;;;59.55;13.65;;;21.70;40.10;;;;;;5039926;28;20025;-66
2024/03/31 09:46:30;;;;;;;62.35;14.63;;;21.80;40.80;;;;;;5037939;28;20032;-66
2024/03/31 09:49:05;;;;;;;50.65;14.35;;;22.20;41.10;;;;;;5035921;28;20039;-66
2024/03/31 09:51:34;;;;;;;52.83;13.63;;;22.50;39.10;;;;;;5040304;28;20052;-66
2024/03/31 09:54:04;;;;;;;42.45;13.23;;;22.90;40.80;;;;;;5047412;28;20040;-66
2024/03/31 09:56:43;;;;;;;52.67;14.23;;;23.30;40.60;;;;;;5037997;28;20021;-66
2024/03/31 09:59:10;;;;;;;62.05;15.23;;;23.40;38.60;;;;;;5036711;28;20028;-66
2024/03/31 10:01:39;;;;;;;48.47;14.77;;;23.50;39.50;;;;;;5033127;28;20028;-66
2024/03/31 10:04:41;;;;;;;55.35;14.35;;;23.60;38.90;;;;;;5041439;28;20634;-66
2024/03/31 10:07:08;;;;;;;50.25;13.48;;;23.50;35.90;;;;;;5041604;28;20430;-66
2024/03/31 10:09:34;;;;;;;38.92;12.48;;;23.50;39.00;;;;;;5034632;28;20056;-67
2024/03/31 10:12:01;;;;;;;47.80;13.48;;;23.50;39.20;;;;;;5035530;28;20034;-66
2024/03/31 10:14:27;;;;;;;47.17;12.45;;;23.60;39.30;;;;;;5039786;28;20033;-67
2024/03/31 10:16:54;;;;;;;46.70;12.93;;;23.60;39.50;;;;;;5037252;28;20025;-64
2024/03/31 10:19:20;;;;;;;44.28;13.73;;;23.60;39.10;;;;;;5040795;28;20017;-64
2024/03/31 10:21:47;;;;;;;52.25;14.27;;;23.60;38.80;;;;;;5036439;28;20035;-64
2024/03/31 10:24:15;;;;;;;42.13;13.80;;;23.50;37.90;;;;;;5041965;28;20106;-64
2024/03/31 10:26:41;;;;;;;55.00;13.52;;;23.30;37.10;;;;;;5040721;28;20084;-64
2024/03/31 10:29:08;;;;;;;54.33;12.68;;;23.20;36.70;;;;;;5040428;28;20033;-65
2024/03/31 10:31:33;;;;;;;51.88;13.35;;;23.20;36.10;;;;;;5036917;28;20028;-65
2024/03/31 10:33:59;;;;;;;61.92;14.35;;;23.20;35.80;;;;;;5039510;28;20029;-65
2024/03/31 10:36:28;;;;;;;58.88;13.00;;;23.00;35.20;;;;;;5040356;28;20033;-66
2024/03/31 10:38:54;;;;;;;44.28;13.88;;;22.90;35.00;;;;;;5031993;28;20507;-65
2024/03/31 10:41:20;;;;;;;60.90;14.77;;;22.90;34.80;;;;;;5037098;28;20029;-64
2024/03/31 10:43:46;;;;;;;62.88;13.90;;;22.70;34.50;;;;;;5038457;28;20039;-65
2024/03/31 10:46:11;;;;;;;56.38;13.93;;;22.70;34.40;;;;;;5040785;28;20500;-65
2024/03/31 10:48:37;;;;;;;51.17;13.93;;;22.60;34.20;;;;;;5032483;28;20025;-65
2024/03/31 10:51:13;;;;;;;48.25;13.48;;;22.60;34.10;;;;;;5033709;28;20032;-65
2024/03/31 10:53:38;;;;;;;50.88;13.50;;;22.50;33.50;;;;;;5031703;28;20021;-65
2024/03/31 10:56:06;;;;;;;62.30;15.13;;;22.50;33.60;;;;;;5035342;28;20461;-65
2024/03/31 10:58:32;;;;;;;52.95;13.85;;;22.30;33.10;;;;;;5034093;28;20021;-65
2024/03/31 11:00:57;;;;;;;49.28;13.43;;;22.30;33.50;;;;;;5039260;28;20132;-65
2024/03/31 11:03:30;;;;;;;51.72;14.25;;;22.20;33.60;;;;;;5029146;28;20505;-66
2024/03/31 11:05:55;;;;;;;48.50;14.05;;;22.20;33.70;;;;;;5042194;28;20016;-65
2024/03/31 11:08:22;;;;;;;64.65;15.18;;;22.20;33.90;;;;;;5034899;28;20102;-65
2024/03/31 11:10:48;;;;;;;55.03;14.95;;;22.20;34.00;;;;;;5035734;28;20041;-66
2024/03/31 11:13:15;;;;;;;51.50;14.52;;;22.20;34.00;;;;;;5040309;28;20021;-65
2024/03/31 11:15:40;;;;;;;53.15;12.90;;;22.20;34.10;;;;;;5035917;28;20025;-66
2024/03/31 11:18:07;;;;;;;67.82;18.13;;;22.20;34.60;;;;;;5039404;28;20071;-65
2024/03/31 11:20:42;;;;;;;67.07;16.70;;;22.10;35.40;;;;;;5037288;28;20029;-65
2024/03/31 11:23:12;;;;;;;71.90;15.73;;;22.00;35.80;;;;;;5052473;28;20476;-66
2024/03/31 11:25:41;;;;;;;66.63;14.20;;;21.90;35.70;;;;;;5049017;28;20025;-65
2024/03/31 11:28:10;;;;;;;66.40;15.10;;;21.90;35.80;;;;;;5033372;28;20028;-66
2024/03/31 11:30:37;;;;;;;64.75;15.48;;;21.80;35.70;;;;;;5039912;28;20052;-65
2024/03/31 11:33:04;;;;;;;72.30;16.17;;;21.70;35.90;;;;;;5034490;28;20028;-64
2024/03/31 11:35:33;;;;;;;60.10;16.15;;;21.60;36.10;;;;;;5038807;28;20025;-66
2024/03/31 11:38:16;;;;;;;52.53;16.80;;;21.50;36.40;;;;;;5036621;28;20493;-65
2024/03/31 11:40:42;;;;;;;60.90;16.27;;;21.50;37.00;;;;;;5024647;28;20091;-65
2024/03/31 11:43:08;;;;;;;57.92;16.23;;;21.50;37.70;;;;;;5035759;28;20021;-64
2024/03/31 11:45:37;;;;;;;78.50;17.45;;;21.40;37.20;;;;;;5033780;28;20029;-66
2024/03/31 11:48:04;;;;;;;61.70;14.60;;;21.30;37.40;;;;;;5037653;28;20036;-65
2024/03/31 11:50:33;;;;;;;60.00;15.02;;;21.30;37.50;;;;;;5039249;28;20087;-66
2024/03/31 11:53:00;;;;;;;57.45;15.68;;;21.30;37.80;;;;;;5036748;28;20029;-64
2024/03/31 11:55:25;;;;;;;65.65;16.30;;;21.30;37.80;;;;;;5042956;28;20036;-66
2024/03/31 11:57:51;;;;;;;69.97;15.48;;;21.30;37.90;;;;;;5031814;28;20033;-66
2024/03/31 12:00:16;;;;;;;56.05;16.23;;;21.30;38.30;;;;;;5035846;28;20021;-65
2024/03/31 12:02:42;;;;;;;56.08;15.13;;;21.30;38.50;;;;;;5039289;28;20522;-65
2024/03/31 12:05:18;;;;;;;56.75;15.55;;;21.20;38.50;;;;;;5030311;28;20071;-65
2024/03/31 12:07:46;;;;;;;58.33;16.20;;;21.20;38.40;;;;;;5029155;28;20036;-65
2024/03/31 12:10:12;;;;;;;60.55;15.55;;;21.10;38.70;;;;;;5035431;28;20045;-65
2024/03/31 12:12:38;;;;;;;91.20;21.92;;;21.10;38.70;;;;;;5040079;28;20717;-65
2024/03/31 12:15:04;;;;;;;65.75;17.27;;;21.10;39.40;;;;;;5037560;28;20044;-65
2024/03/31 12:17:30;;;;;;;54.78;16.90;;;21.00;39.50;;;;;;5042253;28;20028;-65
2024/03/31 12:19:55;;;;;;;58.35;14.90;;;21.00;39.80;;;;;;5036426;28;20024;-64
2024/03/31 12:22:22;;;;;;;71.38;15.40;;;21.00;39.80;;;;;;5038342;28;20413;-64